ADDS METAR Data INFO
IDs: Format: Raw Decoded Include TAF

Data at: 2232 UTC 22 Aug 2017

KU68 222215Z AUTO 00000KT 10SM CLR 31/ A3011 RMK AO2
KU68 222155Z AUTO 00000KT 10SM CLR 30/ A3012 RMK AO2
KU68 222135Z AUTO 18005KT 10SM CLR 31/ A3012 RMK AO2
KU68 222115Z AUTO 00000KT 10SM CLR 31/ A3013 RMK AO2
KU68 222055Z AUTO 11005KT 10SM CLR 30/ A3013 RMK AO2
KU68 222035Z AUTO 14004KT 10SM CLR 30/ A3015 RMK AO2 LTG DSNT SW
KU68 222015Z AUTO 13005KT 10SM CLR 30/ A3016 RMK AO2
KU68 221955Z AUTO 00000KT 10SM CLR 29/ A3016 RMK AO2
KU68 221935Z AUTO 13004KT 10SM CLR 28/ A3017 RMK AO2
KU68 221915Z AUTO 12006KT 10SM CLR 28/ A3018 RMK AO2
KU68 221855Z AUTO 12004KT 10SM CLR 27/ A3018 RMK AO2
KU68 221835Z AUTO 00000KT 10SM CLR 27/ A3019 RMK AO2
KU68 221815Z AUTO 18003KT 10SM CLR 26/ A3020 RMK AO2
KU68 221755Z AUTO 14004KT 10SM CLR 25/ A3021 RMK AO2
KU68 221735Z AUTO 14003KT 10SM CLR 24/ A3021 RMK AO2
KU68 221715Z AUTO 00000KT 10SM CLR 23/ A3022 RMK AO2
KU68 221655Z AUTO 00000KT 10SM CLR 23/M33 A3022 RMK AO2
KU68 221635Z AUTO 10003KT 10SM CLR 21/M32 A3023 RMK AO2
KU68 221615Z AUTO 12003KT 10SM CLR 21/M21 A3024 RMK AO2
KU68 221555Z AUTO 10004KT 10SM CLR 20/M15 A3024 RMK AO2
KU68 221535Z AUTO 11005KT 10SM CLR 19/M13 A3024 RMK AO2
KU68 221515Z AUTO 11003KT 10SM CLR 18/M13 A3024 RMK AO2
KU68 221455Z AUTO 00000KT 10SM CLR 16/M13 A3024 RMK AO2
KU68 221435Z AUTO 00000KT 10SM CLR 15/M13 A3025 RMK AO2
KU68 221415Z AUTO 00000KT 10SM CLR 13/M13 A3024 RMK AO2
KU68 221355Z AUTO 00000KT 10SM CLR 12/M12 A3024 RMK AO2
KU68 221335Z AUTO 00000KT 10SM CLR 11/M12 A3023 RMK AO2
KU68 221315Z AUTO 00000KT 10SM CLR 10/M14 A3023 RMK AO2
KU68 221255Z AUTO 00000KT 10SM CLR 10/M15 A3023 RMK AO2
KU68 221235Z AUTO 00000KT 10SM CLR 10/M14 A3022 RMK AO2
KU68 221215Z AUTO 00000KT 10SM CLR 08/M17 A3022 RMK AO2
KU68 221155Z AUTO 00000KT 10SM CLR 10/M18 A3021 RMK AO2
KU68 221135Z AUTO 00000KT 10SM CLR 11/M22 A3021 RMK AO2
KU68 221115Z AUTO 00000KT 10SM CLR 10/M34 A3021 RMK AO2
KU68 221055Z AUTO 00000KT 10SM CLR 10/M38 A3020 RMK AO2
KU68 221035Z AUTO 00000KT 10SM CLR 10/M41 A3020 RMK AO2
KU68 221015Z AUTO 00000KT 10SM CLR 12/ A3020 RMK AO2
KU68 220955Z AUTO 00000KT 10SM CLR 13/ A3020 RMK AO2
KU68 220935Z AUTO 00000KT 10SM CLR 12/ A3020 RMK AO2
KU68 220915Z AUTO 01003KT 10SM CLR 12/ A3020 RMK AO2
KU68 220855Z AUTO 33004KT 10SM CLR 12/ A3020 RMK AO2
KU68 220835Z AUTO 00000KT 10SM CLR 12/M41 A3020 RMK AO2
KU68 220815Z AUTO 17006KT 10SM CLR 11/M39 A3020 RMK AO2
KU68 220755Z AUTO 14006KT 10SM CLR 12/M40 A3020 RMK AO2
KU68 220735Z AUTO 00000KT 10SM CLR 13/ A3019 RMK AO2
KU68 220715Z AUTO 28005KT 10SM CLR 14/M38 A3019 RMK AO2
KU68 220655Z AUTO 00000KT 10SM CLR 13/M36 A3019 RMK AO2
KU68 220635Z AUTO 00000KT 10SM CLR 14/ A3019 RMK AO2
KU68 220615Z AUTO 00000KT 10SM CLR 17/ A3019 RMK AO2
KU68 220555Z AUTO 35004KT 10SM CLR 17/ A3019 RMK AO2
KU68 220535Z AUTO 34006KT 10SM CLR 17/ A3019 RMK AO2
KU68 220515Z AUTO 30006KT 10SM CLR 20/ A3019 RMK AO2
KU68 220455Z AUTO 01004KT 10SM CLR 18/ A3019 RMK AO2
KU68 220435Z AUTO 02005KT 10SM CLR 18/ A3019 RMK AO2
KU68 220415Z AUTO 03003KT 10SM CLR 20/ A3018 RMK AO2
KU68 220355Z AUTO 01006KT 10SM CLR 21/ A3018 RMK AO2
KU68 220335Z AUTO 03006KT 10SM CLR 21/ A3018 RMK AO2
KU68 220315Z AUTO 03007KT 10SM CLR 22/ A3018 RMK AO2
KU68 220255Z AUTO 03010KT 10SM CLR 22/ A3017 RMK AO2
KU68 220235Z AUTO 03010KT 10SM CLR 23/ A3016 RMK AO2
KU68 220215Z AUTO 03011KT 10SM CLR 23/ A3016 RMK AO2
KU68 220155Z AUTO 03013G17KT 10SM CLR 24/ A3015 RMK AO2
KU68 220135Z AUTO 03013G20KT 10SM CLR 25/ A3014 RMK AO2
KU68 220115Z AUTO 03016G20KT 10SM CLR 26/ A3013 RMK AO2
KU68 220055Z AUTO 03014KT 10SM CLR 26/ A3013 RMK AO2
KU68 220035Z AUTO 03011G15KT 10SM CLR 27/ A3013 RMK AO2
KU68 220015Z AUTO 06009KT 024V114 10SM CLR 27/ A3013 RMK AO2
KU68 212355Z AUTO 36003KT 10SM CLR 27/ A3013 RMK AO2
KU68 212335Z AUTO 00000KT 10SM CLR 27/ A3014 RMK AO2
KU68 212315Z AUTO 10005KT 10SM CLR 28/ A3014 RMK AO2
KU68 212255Z AUTO 06003KT 10SM CLR 28/ A3014 RMK AO2
KU68 212235Z AUTO 13005KT 10SM CLR 28/ A3014 RMK AO2
KU68 212215Z AUTO 09007KT 054V124 10SM CLR 27/ A3014 RMK AO2
KU68 212155Z AUTO 36004KT 10SM CLR 27/ A3014 RMK AO2
KU68 212135Z AUTO 04003KT 10SM CLR 27/ A3014 RMK AO2
KU68 212115Z AUTO 00000KT 10SM CLR 27/ A3015 RMK AO2
KU68 212055Z AUTO 00000KT 10SM CLR 26/ A3015 RMK AO2
KU68 212035Z AUTO 04003KT 10SM CLR 26/ A3016 RMK AO2
KU68 212015Z AUTO 08003KT 10SM CLR 26/ A3016 RMK AO2
KU68 211955Z AUTO 00000KT 10SM CLR 26/ A3017 RMK AO2
KU68 211935Z AUTO 15003KT 10SM CLR 26/ A3017 RMK AO2
KU68 211915Z AUTO 00000KT 10SM CLR 25/ A3017 RMK AO2
KU68 211855Z AUTO 26004KT 10SM CLR 25/ A3017 RMK AO2
KU68 211835Z AUTO 00000KT 10SM CLR 23/ A3017 RMK AO2
KU68 211815Z AUTO 00000KT 10SM CLR 22/ A3016 RMK AO2
KU68 211755Z AUTO 20003KT 10SM CLR 21/ A3017 RMK AO2
KU68 211735Z AUTO 22003KT 10SM CLR 21/ A3017 RMK AO2
KU68 211715Z AUTO 22004KT 10SM CLR 22/ A3017 RMK AO2
KU68 211655Z AUTO 24005KT 10SM CLR 22/ A3018 RMK AO2
KU68 211635Z AUTO 25004KT 10SM CLR 23/ A3017 RMK AO2
KU68 211615Z AUTO 23004KT 10SM CLR 22/ A3018 RMK AO2
KU68 211555Z AUTO 27005KT 10SM CLR 21/ A3018 RMK AO2
KU68 211535Z AUTO 26005KT 10SM CLR 20/ A3017 RMK AO2
KU68 211515Z AUTO 26006KT 10SM CLR 20/ A3017 RMK AO2
KU68 211455Z AUTO 27005KT 10SM CLR 18/ A3017 RMK AO2
KU68 211435Z AUTO 26006KT 10SM CLR 18/ A3016 RMK AO2
KU68 211415Z AUTO 26007KT 10SM CLR 17/ A3016 RMK AO2
KU68 211355Z AUTO 25005KT 10SM CLR 17/ A3016 RMK AO2
KU68 211335Z AUTO 28006KT 10SM CLR 16/ A3015 RMK AO2
KU68 211315Z AUTO 24007KT 10SM CLR 16/ A3014 RMK AO2
KU68 211255Z AUTO 26005KT 10SM CLR 16/ A3013 RMK AO2
KU68 211235Z AUTO 27007KT 10SM CLR 16/ A3013 RMK AO2
KU68 211215Z AUTO 27004KT 10SM CLR 16/ A3012 RMK AO2
KU68 211155Z AUTO 24004KT 10SM CLR 16/ A3012 RMK AO2
KU68 211135Z AUTO 27004KT 10SM CLR 16/ A3011 RMK AO2
KU68 211115Z AUTO 26005KT 10SM CLR 16/ A3010 RMK AO2
KU68 211055Z AUTO 25006KT 10SM CLR 16/ A3010 RMK AO2
KU68 211035Z AUTO 26005KT 10SM CLR 17/ A3010 RMK AO2